createdAt,value
2023-01-28T00:01:19.488Z,0.30
2023-01-28T00:03:52.445Z,0.30
2023-01-28T00:06:19.460Z,0.30
2023-01-28T00:08:46.387Z,0.30
2023-01-28T00:11:13.940Z,0.30
2023-01-28T00:13:41.803Z,0.30
2023-01-28T00:16:09.777Z,0.30
2023-01-28T00:18:36.997Z,0.30
2023-01-28T00:21:10.796Z,0.30
2023-01-28T00:23:38.948Z,0.40
2023-01-28T00:26:08.764Z,0.40
2023-01-28T00:28:35.763Z,0.40
2023-01-28T00:31:23.846Z,0.40
2023-01-28T00:33:51.155Z,0.30
2023-01-28T00:36:19.110Z,0.30
2023-01-28T00:38:54.193Z,0.20
2023-01-28T00:41:23.758Z,0.20
2023-01-28T00:43:51.464Z,0.10
2023-01-28T00:46:18.802Z,0.10
2023-01-28T00:48:46.015Z,0.10
2023-01-28T00:51:14.610Z,0.00
2023-01-28T00:53:41.536Z,-0.10
2023-01-28T00:56:11.393Z,-0.20
2023-01-28T00:58:38.268Z,-0.30
2023-01-28T01:01:20.761Z,-0.40
2023-01-28T01:03:48.081Z,-0.40
2023-01-28T01:06:15.985Z,-0.50
2023-01-28T01:08:43.021Z,-0.60
2023-01-28T01:11:11.868Z,-0.70
2023-01-28T01:13:38.757Z,-0.80
2023-01-28T01:16:18.418Z,-0.80
2023-01-28T01:18:45.351Z,-0.90
2023-01-28T01:21:20.278Z,-1.00
2023-01-28T01:23:47.954Z,-1.00
2023-01-28T01:26:15.338Z,-1.10
2023-01-28T01:28:42.336Z,-1.10
2023-01-28T01:31:15.566Z,-1.10
2023-01-28T01:33:43.159Z,-1.10
2023-01-28T01:36:11.569Z,-1.20
2023-01-28T01:38:38.829Z,-1.20
2023-01-28T01:41:06.245Z,-1.30
2023-01-28T01:43:49.684Z,-1.30
2023-01-28T01:46:23.522Z,-1.40
2023-01-28T01:48:51.006Z,-1.40
2023-01-28T01:51:21.840Z,-1.50
2023-01-28T01:53:51.643Z,-1.50
2023-01-28T01:56:21.480Z,-1.60
2023-01-28T01:58:50.443Z,-1.60
2023-01-28T02:01:20.304Z,-1.70
2023-01-28T02:03:57.901Z,-1.70
2023-01-28T02:06:24.706Z,-1.70
2023-01-28T02:08:55.506Z,-1.70
2023-01-28T02:11:25.288Z,-1.80
2023-01-28T02:13:56.859Z,-1.90
2023-01-28T02:16:24.767Z,-1.90
2023-01-28T02:18:51.679Z,-1.90
2023-01-28T02:21:24.466Z,-1.90
2023-01-28T02:24:27.738Z,-1.90
2023-01-28T02:27:19.870Z,-1.90
2023-01-28T02:30:16.293Z,-2.00
2023-01-28T02:32:50.232Z,-2.00
2023-01-28T02:35:25.097Z,-2.00
2023-01-28T02:38:08.556Z,-2.10
2023-01-28T02:40:59.195Z,-2.10
2023-01-28T02:43:42.277Z,-2.10
2023-01-28T02:46:34.761Z,-2.10
2023-01-28T02:49:02.342Z,-2.10
2023-01-28T02:51:50.539Z,-2.20
2023-01-28T02:54:53.835Z,-2.20
2023-01-28T02:57:33.806Z,-2.20
2023-01-28T03:00:29.748Z,-2.20
2023-01-28T03:03:30.262Z,-2.30
2023-01-28T03:06:05.303Z,-2.20
2023-01-28T03:09:00.449Z,-2.30
2023-01-28T03:11:47.634Z,-2.30
2023-01-28T03:14:34.113Z,-2.30
2023-01-28T03:17:19.874Z,-2.30
2023-01-28T03:20:05.371Z,-2.30
2023-01-28T03:22:54.273Z,-2.40
2023-01-28T03:25:41.069Z,-2.40
2023-01-28T03:28:28.898Z,-2.40
2023-01-28T03:31:19.759Z,-2.40
2023-01-28T03:34:05.660Z,-2.50
2023-01-28T03:36:48.505Z,-2.50
2023-01-28T03:39:15.779Z,-2.50
2023-01-28T03:41:42.804Z,-2.50
2023-01-28T03:44:28.147Z,-2.50
2023-01-28T03:46:54.924Z,-2.50
2023-01-28T03:49:21.774Z,-2.60
2023-01-28T03:51:48.649Z,-2.60
2023-01-28T03:54:15.470Z,-2.60
2023-01-28T03:56:42.235Z,-2.60
2023-01-28T03:59:09.054Z,-2.60
2023-01-28T04:01:35.878Z,-2.60
2023-01-28T04:04:03.071Z,-2.60
2023-01-28T04:06:30.129Z,-2.60
2023-01-28T04:08:59.389Z,-2.60
2023-01-28T04:11:27.396Z,-2.60
2023-01-28T04:13:54.220Z,-2.60
2023-01-28T04:16:21.053Z,-2.60
2023-01-28T04:18:48.270Z,-2.60
2023-01-28T04:21:15.148Z,-2.60
2023-01-28T04:23:41.951Z,-2.60
2023-01-28T04:26:08.763Z,-2.60
2023-01-28T04:28:35.620Z,-2.70
2023-01-28T04:31:02.558Z,-2.70
2023-01-28T04:33:29.413Z,-2.70
2023-01-28T04:35:56.302Z,-2.70
2023-01-28T04:38:23.143Z,-2.80
2023-01-28T04:40:54.241Z,-2.80
2023-01-28T04:43:21.057Z,-2.80
2023-01-28T04:45:48.626Z,-2.80
2023-01-28T04:48:16.893Z,-2.90
2023-01-28T04:50:44.577Z,-2.90
2023-01-28T04:53:11.797Z,-2.90
2023-01-28T04:55:38.653Z,-2.90
2023-01-28T04:58:05.465Z,-2.90
2023-01-28T05:00:32.237Z,-3.00
2023-01-28T05:02:59.008Z,-3.00
2023-01-28T05:05:25.832Z,-3.00
2023-01-28T05:07:53.760Z,-3.00
2023-01-28T05:10:21.068Z,-3.00
2023-01-28T05:12:48.585Z,-3.10
2023-01-28T05:15:19.495Z,-3.10
2023-01-28T05:17:46.807Z,-3.10
2023-01-28T05:20:14.271Z,-3.10
2023-01-28T05:22:41.705Z,-3.10
2023-01-28T05:25:09.160Z,-3.10
2023-01-28T05:27:35.976Z,-3.10
2023-01-28T05:30:02.828Z,-3.10
2023-01-28T05:32:29.738Z,-3.10
2023-01-28T05:34:56.520Z,-3.10
2023-01-28T05:37:23.304Z,-3.20
2023-01-28T05:39:50.077Z,-3.20
2023-01-28T05:42:18.690Z,-3.20
2023-01-28T05:44:45.512Z,-3.20
2023-01-28T05:47:12.334Z,-3.10
2023-01-28T05:49:39.142Z,-3.10
2023-01-28T05:52:05.957Z,-3.10
2023-01-28T05:54:32.732Z,-3.20
2023-01-28T05:56:59.540Z,-3.20
2023-01-28T05:59:26.693Z,-3.20
2023-01-28T06:01:53.514Z,-3.20
2023-01-28T06:04:20.382Z,-3.30
2023-01-28T06:06:47.233Z,-3.30
2023-01-28T06:09:14.066Z,-3.30
2023-01-28T06:11:40.872Z,-3.30
2023-01-28T06:14:07.750Z,-3.30
2023-01-28T06:16:35.057Z,-3.30
2023-01-28T06:19:02.020Z,-3.40
2023-01-28T06:21:30.199Z,-3.40
2023-01-28T06:23:57.245Z,-3.40
2023-01-28T06:26:24.326Z,-3.40
2023-01-28T06:28:51.159Z,-3.40
2023-01-28T06:31:19.144Z,-3.40
2023-01-28T06:33:46.166Z,-3.40
2023-01-28T06:36:13.054Z,-3.40
2023-01-28T06:38:40.143Z,-3.40
2023-01-28T06:41:06.968Z,-3.50
2023-01-28T06:43:33.748Z,-3.50
2023-01-28T06:46:00.970Z,-3.50
2023-01-28T06:48:28.219Z,-3.50
2023-01-28T06:50:55.030Z,-3.50
2023-01-28T06:53:22.173Z,-3.50
2023-01-28T06:55:49.336Z,-3.50
2023-01-28T06:58:16.216Z,-3.50
2023-01-28T07:00:43.045Z,-3.50
2023-01-28T07:03:10.008Z,-3.50
2023-01-28T07:05:36.793Z,-3.50
2023-01-28T07:08:03.632Z,-3.50
2023-01-28T07:10:30.452Z,-3.50
2023-01-28T07:12:57.355Z,-3.50
2023-01-28T07:15:24.161Z,-3.50
2023-01-28T07:17:50.992Z,-3.50
2023-01-28T07:20:18.219Z,-3.50
2023-01-28T07:22:45.517Z,-3.50
2023-01-28T07:25:14.139Z,-3.50
2023-01-28T07:27:47.047Z,-3.50
2023-01-28T07:30:14.823Z,-3.50
2023-01-28T07:32:41.882Z,-3.50
2023-01-28T07:35:09.069Z,-3.50
2023-01-28T07:37:35.869Z,-3.40
2023-01-28T07:40:02.695Z,-3.40
2023-01-28T07:42:29.487Z,-3.40
2023-01-28T07:44:56.929Z,-3.30
2023-01-28T07:47:23.756Z,-3.30
2023-01-28T07:49:50.570Z,-3.20
2023-01-28T07:52:17.367Z,-3.20
2023-01-28T07:54:44.148Z,-3.10
2023-01-28T07:57:11.126Z,-3.00
2023-01-28T07:59:37.978Z,-3.00
2023-01-28T08:02:04.789Z,-2.90
2023-01-28T08:04:31.696Z,-2.80
2023-01-28T08:06:58.657Z,-2.70
2023-01-28T08:09:25.529Z,-2.60
2023-01-28T08:11:52.644Z,-2.50
2023-01-28T08:14:19.480Z,-2.40
2023-01-28T08:16:46.317Z,-2.30
2023-01-28T08:19:13.104Z,-2.20
2023-01-28T08:21:39.981Z,-2.10
2023-01-28T08:24:07.010Z,-2.00
2023-01-28T08:26:33.818Z,-1.90
2023-01-28T08:29:00.593Z,-1.80
2023-01-28T08:31:29.345Z,-1.70
2023-01-28T08:33:56.184Z,-1.60
2023-01-28T08:36:23.262Z,-1.40
2023-01-28T08:38:56.858Z,-1.30
2023-01-28T08:41:24.084Z,-1.20
2023-01-28T08:43:50.921Z,-1.10
2023-01-28T08:46:17.723Z,-1.00
2023-01-28T08:48:44.504Z,-0.90
2023-01-28T08:51:11.328Z,-0.80
2023-01-28T08:53:38.197Z,-0.70
2023-01-28T08:56:05.395Z,-0.60
2023-01-28T08:58:32.400Z,-0.50
2023-01-28T09:01:03.671Z,-0.40
2023-01-28T09:03:30.472Z,-0.30
2023-01-28T09:06:04.749Z,-0.20
2023-01-28T09:08:31.647Z,-0.10
2023-01-28T09:10:59.190Z,0.00
2023-01-28T09:13:26.995Z,0.10
2023-01-28T09:15:56.164Z,0.20
2023-01-28T09:18:22.977Z,0.20
2023-01-28T09:20:49.840Z,0.30
2023-01-28T09:23:16.718Z,0.30
2023-01-28T09:25:43.695Z,0.40
2023-01-28T09:28:11.027Z,0.40
2023-01-28T09:30:43.795Z,0.40
2023-01-28T09:33:15.723Z,0.40
2023-01-28T09:35:46.137Z,0.40
2023-01-28T09:38:13.016Z,0.40
2023-01-28T09:40:43.863Z,0.40
2023-01-28T09:43:18.097Z,0.40
2023-01-28T09:45:47.884Z,0.50
2023-01-28T09:48:21.657Z,0.50
2023-01-28T09:50:53.558Z,0.60
2023-01-28T09:53:33.407Z,0.60
2023-01-28T09:56:29.993Z,0.70
2023-01-28T09:59:33.342Z,0.70
2023-01-28T10:02:11.487Z,0.80
2023-01-28T10:05:03.527Z,0.80
2023-01-28T10:07:54.863Z,0.80
2023-01-28T10:10:40.456Z,0.80
2023-01-28T10:13:22.000Z,0.80
2023-01-28T10:16:16.488Z,0.90
2023-01-28T10:18:57.554Z,0.90
2023-01-28T10:21:33.539Z,0.90
2023-01-28T10:24:05.633Z,0.90
2023-01-28T10:26:36.322Z,0.90
2023-01-28T10:29:11.644Z,1.00
2023-01-28T10:31:44.162Z,1.00
2023-01-28T10:34:11.368Z,1.00
2023-01-28T10:36:38.293Z,1.00
2023-01-28T10:39:06.785Z,1.00
2023-01-28T10:41:34.329Z,1.00
2023-01-28T10:44:01.395Z,1.10
2023-01-28T10:46:38.345Z,1.10
2023-01-28T10:49:14.347Z,1.20
2023-01-28T10:51:42.466Z,1.20
2023-01-28T10:54:22.842Z,1.20
2023-01-28T10:56:53.476Z,1.20
2023-01-28T10:59:20.382Z,1.30
2023-01-28T11:01:56.354Z,1.40
2023-01-28T11:04:30.272Z,1.50
2023-01-28T11:07:00.252Z,1.60
2023-01-28T11:09:32.423Z,1.60
2023-01-28T11:12:10.723Z,1.60
2023-01-28T11:14:37.629Z,1.60
2023-01-28T11:17:04.515Z,1.70
2023-01-28T11:19:35.287Z,1.70
2023-01-28T11:22:02.649Z,1.80
2023-01-28T11:24:31.864Z,1.80
2023-01-28T11:27:15.387Z,1.90
2023-01-28T11:29:42.300Z,1.90
2023-01-28T11:32:19.723Z,2.00
2023-01-28T11:34:51.988Z,2.00
2023-01-28T11:37:22.814Z,2.20
2023-01-28T11:40:00.386Z,2.20
2023-01-28T11:42:27.279Z,2.30
2023-01-28T11:44:54.207Z,2.30
2023-01-28T11:47:53.696Z,2.30
2023-01-28T11:50:52.673Z,2.30
2023-01-28T11:53:25.479Z,2.30
2023-01-28T11:55:52.301Z,2.30
2023-01-28T11:58:34.916Z,2.30
2023-01-28T12:01:19.670Z,2.30
2023-01-28T12:04:14.422Z,2.20
2023-01-28T12:07:01.763Z,2.20
2023-01-28T12:09:55.105Z,2.10
2023-01-28T12:12:46.302Z,2.10
2023-01-28T12:15:28.233Z,2.00
2023-01-28T12:18:32.024Z,2.00
2023-01-28T12:21:21.783Z,2.00
2023-01-28T12:24:10.640Z,2.20
2023-01-28T12:26:47.112Z,2.40
2023-01-28T12:29:47.616Z,2.70
2023-01-28T12:32:42.080Z,2.80
2023-01-28T12:35:32.689Z,2.80
2023-01-28T12:38:19.666Z,2.70
2023-01-28T12:41:14.426Z,2.60
2023-01-28T12:44:04.262Z,2.50
2023-01-28T12:47:09.571Z,2.50
2023-01-28T12:49:59.843Z,2.50
2023-01-28T12:52:38.800Z,2.40
2023-01-28T12:55:19.650Z,2.40
2023-01-28T12:57:48.723Z,2.40
2023-01-28T13:00:34.929Z,2.40
2023-01-28T13:03:26.982Z,2.30
2023-01-28T13:06:15.072Z,2.30
2023-01-28T13:08:42.023Z,2.30
2023-01-28T13:11:16.016Z,2.30
2023-01-28T13:13:43.992Z,2.30
2023-01-28T13:16:11.651Z,2.30
2023-01-28T13:18:42.451Z,2.30
2023-01-28T13:21:16.936Z,2.30
2023-01-28T13:23:48.852Z,2.30
2023-01-28T13:26:18.730Z,2.30
2023-01-28T13:28:50.220Z,2.20
2023-01-28T13:31:23.401Z,2.20
2023-01-28T13:33:56.459Z,2.20
2023-01-28T13:36:27.731Z,2.20
2023-01-28T13:39:13.722Z,2.10
2023-01-28T13:41:51.554Z,2.10
2023-01-28T13:44:29.906Z,2.10
2023-01-28T13:47:26.420Z,2.10
2023-01-28T13:50:06.859Z,2.10
2023-01-28T13:52:43.484Z,2.20
2023-01-28T13:55:13.484Z,2.20
2023-01-28T13:58:05.880Z,2.20
2023-01-28T14:00:50.622Z,2.30
2023-01-28T14:03:35.901Z,2.30
2023-01-28T14:06:11.779Z,2.30
2023-01-28T14:08:56.857Z,2.30
2023-01-28T14:11:47.982Z,2.30
2023-01-28T14:14:26.826Z,2.40
2023-01-28T14:17:28.541Z,2.40
2023-01-28T14:19:57.179Z,2.40
2023-01-28T14:22:23.994Z,2.30
2023-01-28T14:24:50.856Z,2.30
2023-01-28T14:27:23.777Z,2.20
2023-01-28T14:30:19.957Z,2.20
2023-01-28T14:32:49.151Z,2.20
2023-01-28T14:35:31.680Z,2.10
2023-01-28T14:37:59.289Z,2.10
2023-01-28T14:40:28.463Z,2.20
2023-01-28T14:42:55.915Z,2.20
2023-01-28T14:45:47.743Z,2.20
2023-01-28T14:48:25.546Z,2.30
2023-01-28T14:51:12.330Z,2.30
2023-01-28T14:54:07.008Z,2.20
2023-01-28T14:57:03.733Z,2.20
2023-01-28T14:59:36.494Z,2.20
2023-01-28T15:02:16.919Z,2.20
2023-01-28T15:04:43.712Z,2.10
2023-01-28T15:07:22.089Z,2.10
2023-01-28T15:10:01.039Z,2.10
2023-01-28T15:12:29.341Z,2.00
2023-01-28T15:14:56.219Z,1.90
2023-01-28T15:17:26.275Z,1.90
2023-01-28T15:19:55.787Z,1.90
2023-01-28T15:22:26.375Z,1.90
2023-01-28T15:24:53.736Z,1.80
2023-01-28T15:27:26.720Z,1.80
2023-01-28T15:29:55.967Z,1.80
2023-01-28T15:32:26.440Z,1.80
2023-01-28T15:34:53.400Z,1.80
2023-01-28T15:37:21.152Z,1.80
2023-01-28T15:39:49.891Z,1.80
2023-01-28T15:42:26.968Z,1.70
2023-01-28T15:44:53.807Z,1.70
2023-01-28T15:47:26.016Z,1.70
2023-01-28T15:49:58.862Z,1.70
2023-01-28T15:52:52.506Z,1.70
2023-01-28T15:55:45.788Z,1.70
2023-01-28T15:58:18.085Z,1.60
2023-01-28T16:00:46.066Z,1.60
2023-01-28T16:03:21.446Z,1.60
2023-01-28T16:06:03.093Z,1.60
2023-01-28T16:08:37.152Z,1.60
2023-01-28T16:11:04.069Z,1.60
2023-01-28T16:13:33.205Z,1.60
2023-01-28T16:16:01.644Z,1.60
2023-01-28T16:18:37.369Z,1.60
2023-01-28T16:21:04.951Z,1.60
2023-01-28T16:23:31.834Z,1.60
2023-01-28T16:26:06.889Z,1.60
2023-01-28T16:28:33.767Z,1.50
2023-01-28T16:31:00.757Z,1.50
2023-01-28T16:33:27.657Z,1.50
2023-01-28T16:36:07.713Z,1.50
2023-01-28T16:38:35.289Z,1.50
2023-01-28T16:41:02.130Z,1.50
2023-01-28T16:43:29.011Z,1.50
2023-01-28T16:45:55.891Z,1.50
2023-01-28T16:48:23.129Z,1.50
2023-01-28T16:50:49.991Z,1.60
2023-01-28T16:53:32.396Z,1.60
2023-01-28T16:55:59.625Z,1.60
2023-01-28T16:58:27.518Z,1.60
2023-01-28T17:00:54.540Z,1.60
2023-01-28T17:03:22.123Z,1.60
2023-01-28T17:05:48.989Z,1.70
2023-01-28T17:08:16.928Z,1.60
2023-01-28T17:10:43.843Z,1.70
2023-01-28T17:13:10.653Z,1.70
2023-01-28T17:15:37.550Z,1.70
2023-01-28T17:18:04.614Z,1.70
2023-01-28T17:20:32.189Z,1.80
2023-01-28T17:22:59.051Z,1.80
